Abis Bremen — PCJO — position and weather

sailwx.info

Track history (hours):
 
Tides and Currents Weather Stations Pressure Air Temp Water Temp Dewpoint Dewpoint Depression Visibility Wind Speed Wind Dir Waves Ship Positions

Abis Bremen

Last reported at 2019-May-20 16:01 UTC. Time now 2019-May-20 16:28 UTC.
Position N 63°06' E 007°46'.

Length 90 m; draft 5.2 m.

Type: Ship. MMSI: 246778880.

Date/timePositionNaut miles runAvg speedWind from/ knotsBaromVisibWave heightAir tempDewpointWater temp
2019-May-20 16:01N 63°06' E 007°46'0 0.0
2019-May-20 15:30N 63°06' E 007°46'0 0.0
2019-May-20 15:01N 63°06' E 007°46'0 0.0
2019-May-20 14:31N 63°06' E 007°46'0 0.0
2019-May-20 13:58N 63°06' E 007°46'0 0.0
2019-May-20 13:28N 63°06' E 007°46'0 0.0
2019-May-20 13:01N 63°06' E 007°46'0 0.0
2019-May-20 12:31N 63°06' E 007°46'0 0.0
2019-May-20 11:58N 63°06' E 007°46'0 0.0
2019-May-20 11:31N 63°06' E 007°46'0 0.0
2019-May-20 11:01N 63°06' E 007°46'0 0.0
2019-May-20 10:31N 63°06' E 007°46'0 0.0
2019-May-20 10:01N 63°06' E 007°46'0 0.0
2019-May-20 09:31N 63°06' E 007°46'0 0.0
2019-May-20 08:58N 63°06' E 007°46'0 0.0
2019-May-20 08:30N 63°06' E 007°46'0 0.8
2019-May-20 08:00N 63°06' E 007°46'4 7.2
2019-May-20 07:30N 63°09' E 007°41'5 9.9
2019-May-20 07:00N 63°14' E 007°43'4 8.4
2019-May-20 06:30N 63°15' E 007°34'4 7.2
2019-May-20 06:00N 63°14' E 007°27'4 7.1
2019-May-20 05:30N 63°12' E 007°21'3 6.3
2019-May-20 05:00N 63°10' E 007°15'3 6.2
2019-May-20 04:30N 63°09' E 007°08'3 6.4
2019-May-20 04:00N 63°08' E 007°02'4 6.6
2019-May-20 03:28N 63°06' E 006°56'3 6.4
2019-May-20 02:59N 63°04' E 006°50'3 6.3
2019-May-20 02:30N 63°02' E 006°45'3 6.4
2019-May-20 02:00N 63°00' E 006°39'3 6.5
2019-May-20 01:30N 62°58' E 006°33'3 6.4
2019-May-20 01:00N 62°56' E 006°28'3 6.4
2019-May-20 00:30N 62°54' E 006°22'3 6.6
2019-May-20 00:00N 62°52' E 006°17'3 6.6
2019-May-19 23:30N 62°50' E 006°11'3 6.6
2019-May-19 23:00N 62°48' E 006°06'3 6.7
2019-May-19 22:30N 62°45' E 006°01'3 6.9
2019-May-19 22:00N 62°43' E 005°55'4 6.9
2019-May-19 21:30N 62°41' E 005°50'3 6.8
2019-May-19 21:00N 62°39' E 005°44'3 6.7
2019-May-19 20:30N 62°36' E 005°39'4 7.1
2019-May-19 20:00N 62°34' E 005°33'5 9.3
2019-May-19 19:30N 62°31' E 005°26'5 9.7
2019-May-19 19:00N 62°27' E 005°18'5 9.7
2019-May-19 18:30N 62°24' E 005°10'5 9.1
2019-May-19 17:58N 62°21' E 005°02'4 8.3
2019-May-19 17:30N 62°19' E 004°56'4 8.4
2019-May-19 17:00N 62°15' E 004°52'4 8.6
2019-May-19 16:30N 62°11' E 004°48'4 8.4
2019-May-19 15:59N 62°07' E 004°44'4 8.3
2019-May-19 15:28N 62°03' E 004°41'4 8.2
2019-May-19 15:00N 61°59' E 004°38'4 8.4
2019-May-19 14:30N 61°55' E 004°35'4 8.4
2019-May-19 14:00N 61°52' E 004°31'4 8.4
2019-May-19 13:30N 61°48' E 004°27'4 8.2
2019-May-19 12:58N 61°44' E 004°23'4 8.3
2019-May-19 12:28N 61°40' E 004°22'4 8.4
2019-May-19 11:59N 61°36' E 004°21'4 8.3
2019-May-19 11:30N 61°32' E 004°20'4 8.6
2019-May-19 11:00N 61°27' E 004°19'4 8.8
2019-May-19 10:30N 61°23' E 004°19'4 8.9
2019-May-19 10:00N 61°19' E 004°18'5 9.0
2019-May-19 09:30N 61°14' E 004°18'5 9.3
2019-May-19 09:00N 61°09' E 004°17'5 9.3
2019-May-19 08:29N 61°05' E 004°16'5 9.2
2019-May-19 07:59N 61°00' E 004°15'510.0
2019-May-19 07:30N 60°55' E 004°15'5 9.9
2019-May-19 07:00N 60°50' E 004°15'510.1
2019-May-19 06:30N 60°45' E 004°14'510.7
2019-May-19 06:00N 60°40' E 004°14'510.8
2019-May-19 05:30N 60°35' E 004°13'611.1
2019-May-19 05:00N 60°29' E 004°12'510.7
2019-May-19 04:30N 60°24' E 004°12'510.6
2019-May-19 04:00N 60°18' E 004°11'610.7
2019-May-19 03:28N 60°13' E 004°12'510.7
2019-May-19 03:00N 60°08' E 004°12'510.7
2019-May-19 02:30N 60°02' E 004°12'510.8
2019-May-19 02:00N 59°57' E 004°12'611.0
2019-May-19 01:29N 59°51' E 004°12'511.1
2019-May-19 01:00N 59°46' E 004°12'611.2
2019-May-19 00:30N 59°40' E 004°11'611.2
2019-May-19 00:00N 59°35' E 004°11'511.0
2019-May-18 23:30N 59°29' E 004°11'510.6
2019-May-18 23:00N 59°24' E 004°12'510.7
2019-May-18 22:30N 59°18' E 004°12'510.5
2019-May-18 22:00N 59°13' E 004°11'510.4
2019-May-18 21:30N 59°08' E 004°11'510.6
2019-May-18 21:00N 59°03' E 004°11'510.7
2019-May-18 20:30N 58°57' E 004°11'510.6
2019-May-18 20:00N 58°52' E 004°10'510.7
2019-May-18 19:30N 58°47' E 004°09'510.9
2019-May-18 19:00N 58°41' E 004°08'611.4
2019-May-18 18:30N 58°36' E 004°07'611.2
2019-May-18 17:59N 58°30' E 004°06'510.9
2019-May-18 17:30N 58°25' E 004°05'611.2
2019-May-18 17:00N 58°19' E 004°04'611.3
2019-May-18 16:29N 58°13' E 004°03'811.2
2019-May-18 15:48N 58°06' E 004°02'511.3
2019-May-18 15:23N 58°01' E 004°01'1310.6
2019-May-18 14:10N 57°48' E 003°58'810.3
2019-May-18 13:25N 57°40' E 003°57'710.2
2019-May-18 12:45N 57°34' E 003°56'310.4
2019-May-18 12:25N 57°30' E 003°55'28410.3
2019-May-17 08:47N 52°50' E 002°32'2 8.8
2019-May-17 08:30N 52°48' E 002°31'59 9.7
2019-May-17 02:25N 51°51' E 002°10'512.2
2019-May-17 02:00N 51°46' E 002°08'612.0
2019-May-17 01:30N 51°40' E 002°04'612.0
2019-May-17 01:00N 51°35' E 001°60'611.5
2019-May-17 00:30N 51°30' E 001°56'510.9
2019-May-17 00:00N 51°25' E 002°02'510.2
2019-May-16 23:30N 51°21' E 001°59'612.4
2019-May-16 23:00N 51°16' E 001°53'612.7
2019-May-16 22:30N 51°11' E 001°46'612.9
2019-May-16 22:00N 51°06' E 001°40'612.6
2019-May-16 21:30N 51°00' E 001°35'612.2
2019-May-16 21:00N 50°55' E 001°30'611.5
2019-May-16 20:29N 50°49' E 001°27'510.7
2019-May-16 20:00N 50°45' E 001°24'810.3
2019-May-16 19:15N 50°38' E 001°16'510.3
2019-May-16 18:48N 50°35' E 001°12'4 9.9
2019-May-16 18:23N 50°32' E 001°07'4 9.9
2019-May-16 18:00N 50°29' E 001°03'13 9.2
2019-May-16 16:38N 50°24' E 000°45'1 9.1
2019-May-16 16:29N 50°23' E 000°44'6 8.9
2019-May-16 15:46N 50°17' E 000°38'2 8.7
2019-May-16 15:30N 50°16' E 000°36'4 8.7
2019-May-16 15:00N 50°12' E 000°32'4 8.6
2019-May-16 14:29N 50°08' E 000°28'5 8.7
2019-May-16 13:58N 50°05' E 000°24'4 8.6
2019-May-16 13:30N 50°02' E 000°21'4 8.5
2019-May-16 13:01N 49°58' E 000°17'4 8.6
2019-May-16 12:30N 49°54' E 000°13'4 8.6
2019-May-16 12:00N 49°51' E 000°10'4 8.8
2019-May-16 11:30N 49°47' E 000°06'5 9.3
2019-May-16 11:00N 49°43' E 000°02'510.1
2019-May-16 10:30N 49°39' W 000°01'510.5
2019-May-16 10:00N 49°34' W 000°04'4 8.9
2019-May-16 09:30N 49°29' W 000°04'510.7
2019-May-16 09:00N 49°27' E 000°03'612.2
2019-May-16 08:30N 49°26' E 000°12'611.7
2019-May-16 08:00N 49°26' E 000°21'611.1
2019-May-16 07:31N 49°29' E 000°29'4 7.9
2019-May-16 07:00N 49°27' E 000°34'4 7.3
2019-May-16 06:30N 49°27' E 000°40'4 8.6
2019-May-16 06:00N 49°31' E 000°42'4 8.9
2019-May-16 05:30N 49°29' E 000°48'0 0.8
2019-May-16 05:00N 49°29' E 000°48'0 0.0
2019-May-16 04:30N 49°29' E 000°48'0 0.0
2019-May-16 04:00N 49°29' E 000°48'0 0.0
2019-May-16 03:30N 49°29' E 000°48'0 0.0
2019-May-16 03:00N 49°29' E 000°48'0 0.0
2019-May-16 02:30N 49°29' E 000°48'0 0.0
2019-May-16 02:00N 49°29' E 000°48'0 0.0
2019-May-16 01:30N 49°29' E 000°48'0 0.0
2019-May-16 01:00N 49°29' E 000°48'0 0.0
2019-May-16 00:30N 49°29' E 000°48'0 0.0
2019-May-16 00:00N 49°29' E 000°48'0 0.0
2019-May-15 23:30N 49°29' E 000°48'0 0.0
2019-May-15 23:00N 49°29' E 000°48'0 0.0
2019-May-15 22:30N 49°29' E 000°48'0 0.0
2019-May-15 22:00N 49°29' E 000°48'0 0.0
2019-May-15 21:30N 49°29' E 000°48'0 0.0
2019-May-15 21:00N 49°29' E 000°48'0 0.0
2019-May-15 20:30N 49°29' E 000°48'0 0.0
2019-May-15 20:00N 49°29' E 000°48'0 0.0
2019-May-15 19:30N 49°29' E 000°48'0 0.0
2019-May-15 19:00N 49°29' E 000°48'0 0.0
2019-May-15 18:30N 49°29' E 000°48'0 0.0
2019-May-15 18:00N 49°29' E 000°48'0 0.0
2019-May-15 17:30N 49°29' E 000°48'0 0.0
2019-May-15 16:57N 49°29' E 000°48'0 0.0
2019-May-15 16:30N 49°29' E 000°48'0 0.0
2019-May-15 16:00N 49°29' E 000°48'0 0.0
2019-May-15 15:30N 49°29' E 000°48'0 0.0
2019-May-15 15:00N 49°29' E 000°48'0 0.0
2019-May-15 14:30N 49°29' E 000°48'0 0.0
2019-May-15 14:00N 49°29' E 000°48'0 0.0
2019-May-15 13:30N 49°29' E 000°48'0 0.0
2019-May-15 13:00N 49°29' E 000°48'0 0.0
2019-May-15 12:30N 49°29' E 000°48'0 0.0
2019-May-15 12:00N 49°29' E 000°48'0 0.0
2019-May-15 11:30N 49°29' E 000°48'0 0.0
2019-May-15 11:00N 49°29' E 000°48'0 0.0
2019-May-15 10:30N 49°29' E 000°48'0 0.0
2019-May-15 10:00N 49°29' E 000°48'0 0.0
2019-May-15 09:30N 49°29' E 000°48'0 0.0
2019-May-15 09:00N 49°29' E 000°48'0 0.0
2019-May-15 08:30N 49°29' E 000°48'0 0.0
2019-May-15 08:00N 49°29' E 000°48'0 0.0
2019-May-15 07:30N 49°29' E 000°48'0 0.0
2019-May-15 07:00N 49°29' E 000°48'0 0.0
2019-May-15 06:30N 49°29' E 000°48'0 0.0
2019-May-15 06:00N 49°29' E 000°48'0 0.0
2019-May-15 05:30N 49°29' E 000°48'0 0.0
2019-May-15 05:00N 49°29' E 000°48'0 0.0
2019-May-15 04:30N 49°29' E 000°48'0 0.0
2019-May-15 04:00N 49°29' E 000°48'0 0.0
2019-May-15 03:30N 49°29' E 000°48'0 0.0
2019-May-15 03:00N 49°29' E 000°48'0 0.0
2019-May-15 02:30N 49°29' E 000°48'0 0.0
2019-May-15 02:00N 49°29' E 000°48'0 0.0
2019-May-15 01:30N 49°29' E 000°48'0 0.0
2019-May-15 01:00N 49°29' E 000°48'0 0.0
2019-May-15 00:30N 49°29' E 000°48'0 0.0
2019-May-15 00:00N 49°29' E 000°48'0 0.0
2019-May-14 23:30N 49°29' E 000°48'0 0.0
2019-May-14 23:00N 49°29' E 000°48'0 0.0
2019-May-14 22:30N 49°29' E 000°48'0 0.0
2019-May-14 22:00N 49°29' E 000°48'1 2.1
2019-May-14 21:30N 49°29' E 000°47'3 6.9
2019-May-14 21:01N 49°31' E 000°43'4 8.8
2019-May-14 20:30N 49°27' E 000°40'5 9.1
2019-May-14 20:00N 49°28' E 000°33'4 7.3
2019-May-14 19:30N 49°28' E 000°27'612.4
2019-May-14 19:00N 49°26' E 000°18'611.5
2019-May-14 18:30N 49°26' E 000°09'611.6
2019-May-14 18:01N 49°27' E 000°01'4 8.8
2019-May-14 17:31N 49°29' W 000°05'1 2.3
2019-May-14 17:00N 49°28' W 000°07'0 0.0
2019-May-14 16:30N 49°28' W 000°07'0 0.0
2019-May-14 16:00N 49°28' W 000°07'0 0.1
2019-May-14 15:30N 49°28' W 000°07'0 0.0
2019-May-14 15:00N 49°28' W 000°07'0 0.0
2019-May-14 14:30N 49°28' W 000°07'0 0.0
2019-May-14 14:00N 49°28' W 000°07'0 0.0
2019-May-14 13:30N 49°28' W 000°07'0 0.1
2019-May-14 13:00N 49°28' W 000°07'0 0.0
2019-May-14 12:30N 49°28' W 000°07'0 0.0
2019-May-14 12:00N 49°28' W 000°07'0 0.0
2019-May-14 11:30N 49°28' W 000°07'0 0.0
2019-May-14 11:00N 49°28' W 000°07'0 0.0
2019-May-14 10:30N 49°28' W 000°07'0 0.0
2019-May-14 10:00N 49°28' W 000°07'0 0.0
2019-May-14 09:30N 49°28' W 000°07'0 0.0
2019-May-14 09:00N 49°28' W 000°07'0 0.0
2019-May-14 08:30N 49°28' W 000°07'0 0.0
2019-May-14 08:00N 49°28' W 000°07'0 0.0
2019-May-14 07:30N 49°28' W 000°07'0 0.0
2019-May-14 07:00N 49°28' W 000°07'0 0.0
2019-May-14 06:30N 49°28' W 000°07'0 0.0
2019-May-14 06:00N 49°28' W 000°07'0 0.0
2019-May-14 05:30N 49°28' W 000°07'0 0.0
2019-May-14 05:00N 49°28' W 000°07'0 0.1
2019-May-14 04:30N 49°28' W 000°07'0 0.0
2019-May-14 04:00N 49°28' W 000°07'0 0.1
2019-May-14 03:30N 49°28' W 000°07'0 0.1
2019-May-14 03:00N 49°28' W 000°07'0 0.0
2019-May-14 02:30N 49°28' W 000°07'0 0.0
2019-May-14 02:00N 49°28' W 000°07'0 0.0
2019-May-14 01:30N 49°28' W 000°07'0 0.0
2019-May-14 01:00N 49°28' W 000°07'0 0.0
2019-May-14 00:30N 49°28' W 000°07'0 0.0
2019-May-14 00:00N 49°28' W 000°07'0 0.0
2019-May-13 23:30N 49°28' W 000°07'0 0.0
2019-May-13 23:00N 49°28' W 000°07'0 0.0
2019-May-13 22:30N 49°28' W 000°07'0 0.0
2019-May-13 22:00N 49°28' W 000°07'0 0.0
2019-May-13 21:30N 49°28' W 000°07'0 0.0
2019-May-13 21:00N 49°28' W 000°07'0 0.0
2019-May-13 20:30N 49°28' W 000°07'0 0.0
2019-May-13 20:00N 49°28' W 000°07'0 0.0
2019-May-13 19:30N 49°28' W 000°07'0 0.0
2019-May-13 19:00N 49°28' W 000°07'0 0.0
2019-May-13 18:27N 49°28' W 000°07'0 0.0
2019-May-13 17:57N 49°28' W 000°07'0 0.0
2019-May-13 17:30N 49°28' W 000°07'0 0.0
2019-May-13 17:00N 49°28' W 000°07'0 0.0
2019-May-13 16:30N 49°28' W 000°07'0 0.0
2019-May-13 16:00N 49°28' W 000°07'0 0.0
2019-May-13 15:30N 49°28' W 000°07'0 0.0
2019-May-13 15:00N 49°28' W 000°07'0 0.0
2019-May-13 14:30N 49°28' W 000°07'0 0.0
2019-May-13 14:00N 49°28' W 000°07'0 0.1
2019-May-13 13:30N 49°28' W 000°07'0 0.1
2019-May-13 13:00N 49°28' W 000°07'0 0.0
2019-May-13 12:30N 49°28' W 000°07'0 0.0
2019-May-13 12:00N 49°28' W 000°07'0 0.0
2019-May-13 11:30N 49°28' W 000°07'0 0.0
2019-May-13 11:00N 49°28' W 000°07'0 0.0
2019-May-13 10:30N 49°28' W 000°07'0 0.0
2019-May-13 10:00N 49°28' W 000°07'4 8.8
2019-May-13 09:30N 49°32' W 000°10'612.5
2019-May-13 09:00N 49°39' W 000°10'612.4
2019-May-13 08:30N 49°45' W 000°09'612.2
2019-May-13 08:00N 49°51' W 000°08'612.1
2019-May-13 07:30N 49°57' W 000°08'612.1
2019-May-13 07:00N 50°03' W 000°07'612.1
2019-May-13 06:30N 50°09' W 000°06'611.9
2019-May-13 06:00N 50°15' W 000°06'610.8
2019-May-13 05:28N 50°21' W 000°05'710.2
2019-May-13 04:50N 50°27' W 000°03'410.1
2019-May-13 04:25N 50°28' E 000°03'5 9.7
2019-May-13 03:52N 50°30' E 000°11'5 9.5
2019-May-13 03:21N 50°32' E 000°18'4 9.4
2019-May-13 02:58N 50°33' E 000°24'6 9.4
2019-May-13 02:21N 50°36' E 000°32'4 9.8
2019-May-13 01:59N 50°38' E 000°36'510.2
2019-May-13 01:30N 50°41' E 000°42'510.7
2019-May-13 01:00N 50°45' E 000°49'611.2
2019-May-13 00:30N 50°48' E 000°56'611.5
2019-May-13 00:00N 50°52' E 001°03'611.6
2019-May-12 23:30N 50°55' E 001°10'611.6
2019-May-12 23:00N 50°59' E 001°17'611.4
2019-May-12 22:30N 51°03' E 001°24'611.0
2019-May-12 22:00N 51°06' E 001°31'510.2
2019-May-12 21:30N 51°10' E 001°37'5 9.4
2019-May-12 21:00N 51°14' E 001°39'5 9.7
2019-May-12 20:30N 51°19' E 001°39'5 9.5
2019-May-12 20:00N 51°23' E 001°35'510.2
2019-May-12 19:30N 51°27' E 001°30'510.0
2019-May-12 19:00N 51°28' E 001°22'510.5
2019-May-12 18:30N 51°29' E 001°14'510.1
2019-May-12 18:00N 51°29' E 001°06'5 9.7
2019-May-12 17:30N 51°29' E 000°58'4 8.9
2019-May-12 17:01N 51°29' E 000°51'4 8.6
2019-May-12 16:31N 51°27' E 000°44'3 5.6
2019-May-12 16:00N 51°24' E 000°44'2 3.2
2019-May-12 15:30N 51°23' E 000°46'0 0.0
2019-May-12 15:00N 51°23' E 000°46'0 0.0
2019-May-12 14:30N 51°23' E 000°46'0 0.0
2019-May-12 14:00N 51°23' E 000°46'0 0.0
2019-May-12 13:30N 51°23' E 000°46'0 0.0
2019-May-12 13:00N 51°23' E 000°46'0 0.0
2019-May-12 12:30N 51°23' E 000°46'0 0.0
2019-May-12 12:00N 51°23' E 000°46'0 0.0
2019-May-12 11:30N 51°23' E 000°46'0 0.0
2019-May-12 11:00N 51°23' E 000°46'0 0.0
2019-May-12 10:30N 51°23' E 000°46'0 0.0
2019-May-12 10:00N 51°23' E 000°46'0 0.0
2019-May-12 09:30N 51°23' E 000°46'0 0.0
2019-May-12 09:00N 51°23' E 000°46'0 0.0
2019-May-12 08:30N 51°23' E 000°46'0 0.0
2019-May-12 08:00N 51°23' E 000°46'0 0.0
2019-May-12 07:30N 51°23' E 000°46'0 0.0
2019-May-12 07:00N 51°23' E 000°46'0 0.0
2019-May-12 06:30N 51°23' E 000°46'0 0.0
2019-May-12 06:00N 51°23' E 000°46'0 0.0
2019-May-12 05:30N 51°23' E 000°46'0 0.0
2019-May-12 05:00N 51°23' E 000°46'0 0.0
2019-May-12 04:30N 51°23' E 000°46'0 0.0
2019-May-12 04:00N 51°23' E 000°46'0 0.0
2019-May-12 03:27N 51°23' E 000°46'0 0.0
2019-May-12 03:00N 51°23' E 000°46'0 0.0
2019-May-12 02:30N 51°23' E 000°46'0 0.0
2019-May-12 02:00N 51°23' E 000°46'0 0.0
2019-May-12 01:30N 51°23' E 000°46'0 0.0
2019-May-12 01:00N 51°23' E 000°46'0 0.0
2019-May-12 00:30N 51°23' E 000°46'0 0.0
2019-May-12 00:00N 51°23' E 000°46'0 0.0
2019-May-11 23:27N 51°23' E 000°46'0 0.0
2019-May-11 23:00N 51°23' E 000°46'0 0.0
2019-May-11 22:30N 51°23' E 000°46'0 0.0
2019-May-11 22:00N 51°23' E 000°46'0 0.0
2019-May-11 21:30N 51°23' E 000°46'0 0.0
2019-May-11 21:00N 51°23' E 000°46'0 0.0
2019-May-11 20:30N 51°23' E 000°46'0 0.0
2019-May-11 20:00N 51°23' E 000°46'0 0.0
2019-May-11 19:30N 51°23' E 000°46'0 0.0
2019-May-11 19:00N 51°23' E 000°46'0 0.0
2019-May-11 18:30N 51°23' E 000°46'0 0.0
2019-May-11 18:00N 51°23' E 000°46'0 0.0
2019-May-11 17:30N 51°23' E 000°46'0 0.0
2019-May-11 17:00N 51°23' E 000°46'0 0.0
2019-May-11 16:30N 51°23' E 000°46'0 0.0
2019-May-11 16:00N 51°23' E 000°46'2 3.9
2019-May-11 15:30N 51°24' E 000°43'3 5.1
2019-May-11 15:01N 51°27' E 000°44'4 7.9
2019-May-11 14:30N 51°28' E 000°50'4 8.9
2019-May-11 14:00N 51°30' E 000°57'1 2.9
2019-May-11 13:29N 51°31' E 000°59'0 0.0
2019-May-11 12:59N 51°31' E 000°59'0 0.0
2019-May-11 12:26N 51°31' E 000°59'0 0.0
2019-May-11 11:59N 51°31' E 000°59'0 0.1
2019-May-11 11:29N 51°31' E 000°59'0 0.0
2019-May-11 10:59N 51°31' E 000°59'0 0.1
2019-May-11 10:29N 51°31' E 000°59'0 0.0
2019-May-11 09:59N 51°31' E 000°59'0 0.0
2019-May-11 09:29N 51°31' E 000°59'0 0.5
2019-May-11 09:00N 51°31' E 000°60'5 9.4
2019-May-11 08:30N 51°33' E 001°06'4 8.7
2019-May-11 08:00N 51°36' E 001°12'4 8.7
2019-May-11 07:30N 51°39' E 001°16'4 8.3
2019-May-11 07:00N 51°42' E 001°21'4 8.7
2019-May-11 06:30N 51°45' E 001°26'4 8.2
2019-May-11 06:00N 51°48' E 001°31'4 8.4
2019-May-11 05:30N 51°50' E 001°37'4 8.7
2019-May-11 05:00N 51°53' E 001°42'5 9.3
2019-May-11 04:30N 51°57' E 001°46'5 9.9
2019-May-11 04:00N 51°60' E 001°52'5 9.9
2019-May-11 03:30N 52°02' E 001°59'510.4
2019-May-11 03:00N 52°03' E 002°07'610.7
2019-May-11 02:29N 52°04' E 002°16'810.9
2019-May-11 01:48N 52°06' E 002°28'511.1
2019-May-11 01:19N 52°09' E 002°36'1111.6
2019-May-11 00:20N 52°16' E 002°50'72 9.9
2019-May-10 17:03N 53°06' E 004°15'110.5
2019-May-10 17:00N 53°07' E 004°15'  
Track history (hours):
 
Tides and Currents Weather Stations Pressure Air Temp Water Temp Dewpoint Dewpoint Depression Visibility Wind Speed Wind Dir Waves Ship Positions

Abis Bremen

Last reported at 2019-May-20 16:01 UTC. Time now 2019-May-20 16:28 UTC.
Position N 63°06' E 007°46'.

Length 90 m; draft 5.2 m.

Type: Ship. MMSI: 246778880.

Date/timePositionNaut miles runAvg speedWind from/ knotsBaromVisibWave heightAir tempDewpointWater temp
2019-May-20 16:01N 63°06' E 007°46'0 0.0
2019-May-20 15:30N 63°06' E 007°46'0 0.0
2019-May-20 15:01N 63°06' E 007°46'0 0.0
2019-May-20 14:31N 63°06' E 007°46'0 0.0
2019-May-20 13:58N 63°06' E 007°46'0 0.0
2019-May-20 13:28N 63°06' E 007°46'0 0.0
2019-May-20 13:01N 63°06' E 007°46'0 0.0
2019-May-20 12:31N 63°06' E 007°46'0 0.0
2019-May-20 11:58N 63°06' E 007°46'0 0.0
2019-May-20 11:31N 63°06' E 007°46'0 0.0
2019-May-20 11:01N 63°06' E 007°46'0 0.0
2019-May-20 10:31N 63°06' E 007°46'0 0.0
2019-May-20 10:01N 63°06' E 007°46'0 0.0
2019-May-20 09:31N 63°06' E 007°46'0 0.0
2019-May-20 08:58N 63°06' E 007°46'0 0.0
2019-May-20 08:30N 63°06' E 007°46'0 0.8
2019-May-20 08:00N 63°06' E 007°46'4 7.2
2019-May-20 07:30N 63°09' E 007°41'5 9.9
2019-May-20 07:00N 63°14' E 007°43'4 8.4
2019-May-20 06:30N 63°15' E 007°34'4 7.2
2019-May-20 06:00N 63°14' E 007°27'4 7.1
2019-May-20 05:30N 63°12' E 007°21'3 6.3
2019-May-20 05:00N 63°10' E 007°15'3 6.2
2019-May-20 04:30N 63°09' E 007°08'3 6.4
2019-May-20 04:00N 63°08' E 007°02'4 6.6
2019-May-20 03:28N 63°06' E 006°56'3 6.4
2019-May-20 02:59N 63°04' E 006°50'3 6.3
2019-May-20 02:30N 63°02' E 006°45'3 6.4
2019-May-20 02:00N 63°00' E 006°39'3 6.5
2019-May-20 01:30N 62°58' E 006°33'3 6.4
2019-May-20 01:00N 62°56' E 006°28'3 6.4
2019-May-20 00:30N 62°54' E 006°22'3 6.6
2019-May-20 00:00N 62°52' E 006°17'3 6.6
2019-May-19 23:30N 62°50' E 006°11'3 6.6
2019-May-19 23:00N 62°48' E 006°06'3 6.7
2019-May-19 22:30N 62°45' E 006°01'3 6.9
2019-May-19 22:00N 62°43' E 005°55'4 6.9
2019-May-19 21:30N 62°41' E 005°50'3 6.8
2019-May-19 21:00N 62°39' E 005°44'3 6.7
2019-May-19 20:30N 62°36' E 005°39'4 7.1
2019-May-19 20:00N 62°34' E 005°33'5 9.3
2019-May-19 19:30N 62°31' E 005°26'5 9.7
2019-May-19 19:00N 62°27' E 005°18'5 9.7
2019-May-19 18:30N 62°24' E 005°10'5 9.1
2019-May-19 17:58N 62°21' E 005°02'4 8.3
2019-May-19 17:30N 62°19' E 004°56'4 8.4
2019-May-19 17:00N 62°15' E 004°52'4 8.6
2019-May-19 16:30N 62°11' E 004°48'4 8.4
2019-May-19 15:59N 62°07' E 004°44'4 8.3
2019-May-19 15:28N 62°03' E 004°41'4 8.2
2019-May-19 15:00N 61°59' E 004°38'4 8.4
2019-May-19 14:30N 61°55' E 004°35'4 8.4
2019-May-19 14:00N 61°52' E 004°31'4 8.4
2019-May-19 13:30N 61°48' E 004°27'4 8.2
2019-May-19 12:58N 61°44' E 004°23'4 8.3
2019-May-19 12:28N 61°40' E 004°22'4 8.4
2019-May-19 11:59N 61°36' E 004°21'4 8.3
2019-May-19 11:30N 61°32' E 004°20'4 8.6
2019-May-19 11:00N 61°27' E 004°19'4 8.8
2019-May-19 10:30N 61°23' E 004°19'4 8.9
2019-May-19 10:00N 61°19' E 004°18'5 9.0
2019-May-19 09:30N 61°14' E 004°18'5 9.3
2019-May-19 09:00N 61°09' E 004°17'5 9.3
2019-May-19 08:29N 61°05' E 004°16'5 9.2
2019-May-19 07:59N 61°00' E 004°15'510.0
2019-May-19 07:30N 60°55' E 004°15'5 9.9
2019-May-19 07:00N 60°50' E 004°15'510.1
2019-May-19 06:30N 60°45' E 004°14'510.7
2019-May-19 06:00N 60°40' E 004°14'510.8
2019-May-19 05:30N 60°35' E 004°13'611.1
2019-May-19 05:00N 60°29' E 004°12'510.7
2019-May-19 04:30N 60°24' E 004°12'510.6
2019-May-19 04:00N 60°18' E 004°11'610.7
2019-May-19 03:28N 60°13' E 004°12'510.7
2019-May-19 03:00N 60°08' E 004°12'510.7
2019-May-19 02:30N 60°02' E 004°12'510.8
2019-May-19 02:00N 59°57' E 004°12'611.0
2019-May-19 01:29N 59°51' E 004°12'511.1
2019-May-19 01:00N 59°46' E 004°12'611.2
2019-May-19 00:30N 59°40' E 004°11'611.2
2019-May-19 00:00N 59°35' E 004°11'511.0
2019-May-18 23:30N 59°29' E 004°11'510.6
2019-May-18 23:00N 59°24' E 004°12'510.7
2019-May-18 22:30N 59°18' E 004°12'510.5
2019-May-18 22:00N 59°13' E 004°11'510.4
2019-May-18 21:30N 59°08' E 004°11'510.6
2019-May-18 21:00N 59°03' E 004°11'510.7
2019-May-18 20:30N 58°57' E 004°11'510.6
2019-May-18 20:00N 58°52' E 004°10'510.7
2019-May-18 19:30N 58°47' E 004°09'510.9
2019-May-18 19:00N 58°41' E 004°08'611.4
2019-May-18 18:30N 58°36' E 004°07'611.2
2019-May-18 17:59N 58°30' E 004°06'510.9
2019-May-18 17:30N 58°25' E 004°05'611.2
2019-May-18 17:00N 58°19' E 004°04'611.3
2019-May-18 16:29N 58°13' E 004°03'811.2
2019-May-18 15:48N 58°06' E 004°02'511.3
2019-May-18 15:23N 58°01' E 004°01'1310.6
2019-May-18 14:10N 57°48' E 003°58'810.3
2019-May-18 13:25N 57°40' E 003°57'710.2
2019-May-18 12:45N 57°34' E 003°56'310.4
2019-May-18 12:25N 57°30' E 003°55'28410.3
2019-May-17 08:47N 52°50' E 002°32'2 8.8
2019-May-17 08:30N 52°48' E 002°31'59 9.7
2019-May-17 02:25N 51°51' E 002°10'512.2
2019-May-17 02:00N 51°46' E 002°08'612.0
2019-May-17 01:30N 51°40' E 002°04'612.0
2019-May-17 01:00N 51°35' E 001°60'611.5
2019-May-17 00:30N 51°30' E 001°56'510.9
2019-May-17 00:00N 51°25' E 002°02'510.2
2019-May-16 23:30N 51°21' E 001°59'612.4
2019-May-16 23:00N 51°16' E 001°53'612.7
2019-May-16 22:30N 51°11' E 001°46'612.9
2019-May-16 22:00N 51°06' E 001°40'612.6
2019-May-16 21:30N 51°00' E 001°35'612.2
2019-May-16 21:00N 50°55' E 001°30'611.5
2019-May-16 20:29N 50°49' E 001°27'510.7
2019-May-16 20:00N 50°45' E 001°24'810.3
2019-May-16 19:15N 50°38' E 001°16'510.3
2019-May-16 18:48N 50°35' E 001°12'4 9.9
2019-May-16 18:23N 50°32' E 001°07'4 9.9
2019-May-16 18:00N 50°29' E 001°03'13 9.2
2019-May-16 16:38N 50°24' E 000°45'1 9.1
2019-May-16 16:29N 50°23' E 000°44'6 8.9
2019-May-16 15:46N 50°17' E 000°38'2 8.7
2019-May-16 15:30N 50°16' E 000°36'4 8.7
2019-May-16 15:00N 50°12' E 000°32'4 8.6
2019-May-16 14:29N 50°08' E 000°28'5 8.7
2019-May-16 13:58N 50°05' E 000°24'4 8.6
2019-May-16 13:30N 50°02' E 000°21'4 8.5
2019-May-16 13:01N 49°58' E 000°17'4 8.6
2019-May-16 12:30N 49°54' E 000°13'4 8.6
2019-May-16 12:00N 49°51' E 000°10'4 8.8
2019-May-16 11:30N 49°47' E 000°06'5 9.3
2019-May-16 11:00N 49°43' E 000°02'510.1
2019-May-16 10:30N 49°39' W 000°01'510.5
2019-May-16 10:00N 49°34' W 000°04'4 8.9
2019-May-16 09:30N 49°29' W 000°04'510.7
2019-May-16 09:00N 49°27' E 000°03'612.2
2019-May-16 08:30N 49°26' E 000°12'611.7
2019-May-16 08:00N 49°26' E 000°21'611.1
2019-May-16 07:31N 49°29' E 000°29'4 7.9
2019-May-16 07:00N 49°27' E 000°34'4 7.3
2019-May-16 06:30N 49°27' E 000°40'4 8.6
2019-May-16 06:00N 49°31' E 000°42'4 8.9
2019-May-16 05:30N 49°29' E 000°48'0 0.8
2019-May-16 05:00N 49°29' E 000°48'0 0.0
2019-May-16 04:30N 49°29' E 000°48'0 0.0
2019-May-16 04:00N 49°29' E 000°48'0 0.0
2019-May-16 03:30N 49°29' E 000°48'0 0.0
2019-May-16 03:00N 49°29' E 000°48'0 0.0
2019-May-16 02:30N 49°29' E 000°48'0 0.0
2019-May-16 02:00N 49°29' E 000°48'0 0.0
2019-May-16 01:30N 49°29' E 000°48'0 0.0
2019-May-16 01:00N 49°29' E 000°48'0 0.0
2019-May-16 00:30N 49°29' E 000°48'0 0.0
2019-May-16 00:00N 49°29' E 000°48'0 0.0
2019-May-15 23:30N 49°29' E 000°48'0 0.0
2019-May-15 23:00N 49°29' E 000°48'0 0.0
2019-May-15 22:30N 49°29' E 000°48'0 0.0
2019-May-15 22:00N 49°29' E 000°48'0 0.0
2019-May-15 21:30N 49°29' E 000°48'0 0.0
2019-May-15 21:00N 49°29' E 000°48'0 0.0
2019-May-15 20:30N 49°29' E 000°48'0 0.0
2019-May-15 20:00N 49°29' E 000°48'0 0.0
2019-May-15 19:30N 49°29' E 000°48'0 0.0
2019-May-15 19:00N 49°29' E 000°48'0 0.0
2019-May-15 18:30N 49°29' E 000°48'0 0.0
2019-May-15 18:00N 49°29' E 000°48'0 0.0
2019-May-15 17:30N 49°29' E 000°48'0 0.0
2019-May-15 16:57N 49°29' E 000°48'0 0.0
2019-May-15 16:30N 49°29' E 000°48'0 0.0
2019-May-15 16:00N 49°29' E 000°48'0 0.0
2019-May-15 15:30N 49°29' E 000°48'0 0.0
2019-May-15 15:00N 49°29' E 000°48'0 0.0
2019-May-15 14:30N 49°29' E 000°48'0 0.0
2019-May-15 14:00N 49°29' E 000°48'0 0.0
2019-May-15 13:30N 49°29' E 000°48'0 0.0
2019-May-15 13:00N 49°29' E 000°48'0 0.0
2019-May-15 12:30N 49°29' E 000°48'0 0.0
2019-May-15 12:00N 49°29' E 000°48'0 0.0
2019-May-15 11:30N 49°29' E 000°48'0 0.0
2019-May-15 11:00N 49°29' E 000°48'0 0.0
2019-May-15 10:30N 49°29' E 000°48'0 0.0
2019-May-15 10:00N 49°29' E 000°48'0 0.0
2019-May-15 09:30N 49°29' E 000°48'0 0.0
2019-May-15 09:00N 49°29' E 000°48'0 0.0
2019-May-15 08:30N 49°29' E 000°48'0 0.0
2019-May-15 08:00N 49°29' E 000°48'0 0.0
2019-May-15 07:30N 49°29' E 000°48'0 0.0
2019-May-15 07:00N 49°29' E 000°48'0 0.0
2019-May-15 06:30N 49°29' E 000°48'0 0.0
2019-May-15 06:00N 49°29' E 000°48'0 0.0
2019-May-15 05:30N 49°29' E 000°48'0 0.0
2019-May-15 05:00N 49°29' E 000°48'0 0.0
2019-May-15 04:30N 49°29' E 000°48'0 0.0
2019-May-15 04:00N 49°29' E 000°48'0 0.0
2019-May-15 03:30N 49°29' E 000°48'0 0.0
2019-May-15 03:00N 49°29' E 000°48'0 0.0
2019-May-15 02:30N 49°29' E 000°48'0 0.0
2019-May-15 02:00N 49°29' E 000°48'0 0.0
2019-May-15 01:30N 49°29' E 000°48'0 0.0
2019-May-15 01:00N 49°29' E 000°48'0 0.0
2019-May-15 00:30N 49°29' E 000°48'0 0.0
2019-May-15 00:00N 49°29' E 000°48'0 0.0
2019-May-14 23:30N 49°29' E 000°48'0 0.0
2019-May-14 23:00N 49°29' E 000°48'0 0.0
2019-May-14 22:30N 49°29' E 000°48'0 0.0
2019-May-14 22:00N 49°29' E 000°48'1 2.1
2019-May-14 21:30N 49°29' E 000°47'3 6.9
2019-May-14 21:01N 49°31' E 000°43'4 8.8
2019-May-14 20:30N 49°27' E 000°40'5 9.1
2019-May-14 20:00N 49°28' E 000°33'4 7.3
2019-May-14 19:30N 49°28' E 000°27'612.4
2019-May-14 19:00N 49°26' E 000°18'611.5
2019-May-14 18:30N 49°26' E 000°09'611.6
2019-May-14 18:01N 49°27' E 000°01'4 8.8
2019-May-14 17:31N 49°29' W 000°05'1 2.3
2019-May-14 17:00N 49°28' W 000°07'0 0.0
2019-May-14 16:30N 49°28' W 000°07'0 0.0
2019-May-14 16:00N 49°28' W 000°07'0 0.1
2019-May-14 15:30N 49°28' W 000°07'0 0.0
2019-May-14 15:00N 49°28' W 000°07'0 0.0
2019-May-14 14:30N 49°28' W 000°07'0 0.0
2019-May-14 14:00N 49°28' W 000°07'0 0.0
2019-May-14 13:30N 49°28' W 000°07'0 0.1
2019-May-14 13:00N 49°28' W 000°07'0 0.0
2019-May-14 12:30N 49°28' W 000°07'0 0.0
2019-May-14 12:00N 49°28' W 000°07'0 0.0
2019-May-14 11:30N 49°28' W 000°07'0 0.0
2019-May-14 11:00N 49°28' W 000°07'0 0.0
2019-May-14 10:30N 49°28' W 000°07'0 0.0
2019-May-14 10:00N 49°28' W 000°07'0 0.0
2019-May-14 09:30N 49°28' W 000°07'0 0.0
2019-May-14 09:00N 49°28' W 000°07'0 0.0
2019-May-14 08:30N 49°28' W 000°07'0 0.0
2019-May-14 08:00N 49°28' W 000°07'0 0.0
2019-May-14 07:30N 49°28' W 000°07'0 0.0
2019-May-14 07:00N 49°28' W 000°07'0 0.0
2019-May-14 06:30N 49°28' W 000°07'0 0.0
2019-May-14 06:00N 49°28' W 000°07'0 0.0
2019-May-14 05:30N 49°28' W 000°07'0 0.0
2019-May-14 05:00N 49°28' W 000°07'0 0.1
2019-May-14 04:30N 49°28' W 000°07'0 0.0
2019-May-14 04:00N 49°28' W 000°07'0 0.1
2019-May-14 03:30N 49°28' W 000°07'0 0.1
2019-May-14 03:00N 49°28' W 000°07'0 0.0
2019-May-14 02:30N 49°28' W 000°07'0 0.0
2019-May-14 02:00N 49°28' W 000°07'0 0.0
2019-May-14 01:30N 49°28' W 000°07'0 0.0
2019-May-14 01:00N 49°28' W 000°07'0 0.0
2019-May-14 00:30N 49°28' W 000°07'0 0.0
2019-May-14 00:00N 49°28' W 000°07'0 0.0
2019-May-13 23:30N 49°28' W 000°07'0 0.0
2019-May-13 23:00N 49°28' W 000°07'0 0.0
2019-May-13 22:30N 49°28' W 000°07'0 0.0
2019-May-13 22:00N 49°28' W 000°07'0 0.0
2019-May-13 21:30N 49°28' W 000°07'0 0.0
2019-May-13 21:00N 49°28' W 000°07'0 0.0
2019-May-13 20:30N 49°28' W 000°07'0 0.0
2019-May-13 20:00N 49°28' W 000°07'0 0.0
2019-May-13 19:30N 49°28' W 000°07'0 0.0
2019-May-13 19:00N 49°28' W 000°07'0 0.0
2019-May-13 18:27N 49°28' W 000°07'0 0.0
2019-May-13 17:57N 49°28' W 000°07'0 0.0
2019-May-13 17:30N 49°28' W 000°07'0 0.0
2019-May-13 17:00N 49°28' W 000°07'0 0.0
2019-May-13 16:30N 49°28' W 000°07'0 0.0
2019-May-13 16:00N 49°28' W 000°07'0 0.0
2019-May-13 15:30N 49°28' W 000°07'0 0.0
2019-May-13 15:00N 49°28' W 000°07'0 0.0
2019-May-13 14:30N 49°28' W 000°07'0 0.0
2019-May-13 14:00N 49°28' W 000°07'0 0.1
2019-May-13 13:30N 49°28' W 000°07'0 0.1
2019-May-13 13:00N 49°28' W 000°07'0 0.0
2019-May-13 12:30N 49°28' W 000°07'0 0.0
2019-May-13 12:00N 49°28' W 000°07'0 0.0
2019-May-13 11:30N 49°28' W 000°07'0 0.0
2019-May-13 11:00N 49°28' W 000°07'0 0.0
2019-May-13 10:30N 49°28' W 000°07'0 0.0
2019-May-13 10:00N 49°28' W 000°07'4 8.8
2019-May-13 09:30N 49°32' W 000°10'612.5
2019-May-13 09:00N 49°39' W 000°10'612.4
2019-May-13 08:30N 49°45' W 000°09'612.2
2019-May-13 08:00N 49°51' W 000°08'612.1
2019-May-13 07:30N 49°57' W 000°08'612.1
2019-May-13 07:00N 50°03' W 000°07'612.1
2019-May-13 06:30N 50°09' W 000°06'611.9
2019-May-13 06:00N 50°15' W 000°06'610.8
2019-May-13 05:28N 50°21' W 000°05'710.2
2019-May-13 04:50N 50°27' W 000°03'410.1
2019-May-13 04:25N 50°28' E 000°03'5 9.7
2019-May-13 03:52N 50°30' E 000°11'5 9.5
2019-May-13 03:21N 50°32' E 000°18'4 9.4
2019-May-13 02:58N 50°33' E 000°24'6 9.4
2019-May-13 02:21N 50°36' E 000°32'4 9.8
2019-May-13 01:59N 50°38' E 000°36'510.2
2019-May-13 01:30N 50°41' E 000°42'510.7
2019-May-13 01:00N 50°45' E 000°49'611.2
2019-May-13 00:30N 50°48' E 000°56'611.5
2019-May-13 00:00N 50°52' E 001°03'611.6
2019-May-12 23:30N 50°55' E 001°10'611.6
2019-May-12 23:00N 50°59' E 001°17'611.4
2019-May-12 22:30N 51°03' E 001°24'611.0
2019-May-12 22:00N 51°06' E 001°31'510.2
2019-May-12 21:30N 51°10' E 001°37'5 9.4
2019-May-12 21:00N 51°14' E 001°39'5 9.7
2019-May-12 20:30N 51°19' E 001°39'5 9.5
2019-May-12 20:00N 51°23' E 001°35'510.2
2019-May-12 19:30N 51°27' E 001°30'510.0
2019-May-12 19:00N 51°28' E 001°22'510.5
2019-May-12 18:30N 51°29' E 001°14'510.1
2019-May-12 18:00N 51°29' E 001°06'5 9.7
2019-May-12 17:30N 51°29' E 000°58'4 8.9
2019-May-12 17:01N 51°29' E 000°51'4 8.6
2019-May-12 16:31N 51°27' E 000°44'3 5.6
2019-May-12 16:00N 51°24' E 000°44'2 3.2
2019-May-12 15:30N 51°23' E 000°46'0 0.0
2019-May-12 15:00N 51°23' E 000°46'0 0.0
2019-May-12 14:30N 51°23' E 000°46'0 0.0
2019-May-12 14:00N 51°23' E 000°46'0 0.0
2019-May-12 13:30N 51°23' E 000°46'0 0.0
2019-May-12 13:00N 51°23' E 000°46'0 0.0
2019-May-12 12:30N 51°23' E 000°46'0 0.0
2019-May-12 12:00N 51°23' E 000°46'0 0.0
2019-May-12 11:30N 51°23' E 000°46'0 0.0
2019-May-12 11:00N 51°23' E 000°46'0 0.0
2019-May-12 10:30N 51°23' E 000°46'0 0.0
2019-May-12 10:00N 51°23' E 000°46'0 0.0
2019-May-12 09:30N 51°23' E 000°46'0 0.0
2019-May-12 09:00N 51°23' E 000°46'0 0.0
2019-May-12 08:30N 51°23' E 000°46'0 0.0
2019-May-12 08:00N 51°23' E 000°46'0 0.0
2019-May-12 07:30N 51°23' E 000°46'0 0.0
2019-May-12 07:00N 51°23' E 000°46'0 0.0
2019-May-12 06:30N 51°23' E 000°46'0 0.0
2019-May-12 06:00N 51°23' E 000°46'0 0.0
2019-May-12 05:30N 51°23' E 000°46'0 0.0
2019-May-12 05:00N 51°23' E 000°46'0 0.0
2019-May-12 04:30N 51°23' E 000°46'0 0.0
2019-May-12 04:00N 51°23' E 000°46'0 0.0
2019-May-12 03:27N 51°23' E 000°46'0 0.0
2019-May-12 03:00N 51°23' E 000°46'0 0.0
2019-May-12 02:30N 51°23' E 000°46'0 0.0
2019-May-12 02:00N 51°23' E 000°46'0 0.0
2019-May-12 01:30N 51°23' E 000°46'0 0.0
2019-May-12 01:00N 51°23' E 000°46'0 0.0
2019-May-12 00:30N 51°23' E 000°46'0 0.0
2019-May-12 00:00N 51°23' E 000°46'0 0.0
2019-May-11 23:27N 51°23' E 000°46'0 0.0
2019-May-11 23:00N 51°23' E 000°46'0 0.0
2019-May-11 22:30N 51°23' E 000°46'0 0.0
2019-May-11 22:00N 51°23' E 000°46'0 0.0
2019-May-11 21:30N 51°23' E 000°46'0 0.0
2019-May-11 21:00N 51°23' E 000°46'0 0.0
2019-May-11 20:30N 51°23' E 000°46'0 0.0
2019-May-11 20:00N 51°23' E 000°46'0 0.0
2019-May-11 19:30N 51°23' E 000°46'0 0.0
2019-May-11 19:00N 51°23' E 000°46'0 0.0
2019-May-11 18:30N 51°23' E 000°46'0 0.0
2019-May-11 18:00N 51°23' E 000°46'0 0.0
2019-May-11 17:30N 51°23' E 000°46'0 0.0
2019-May-11 17:00N 51°23' E 000°46'0 0.0
2019-May-11 16:30N 51°23' E 000°46'0 0.0
2019-May-11 16:00N 51°23' E 000°46'2 3.9
2019-May-11 15:30N 51°24' E 000°43'3 5.1
2019-May-11 15:01N 51°27' E 000°44'4 7.9
2019-May-11 14:30N 51°28' E 000°50'4 8.9
2019-May-11 14:00N 51°30' E 000°57'1 2.9
2019-May-11 13:29N 51°31' E 000°59'0 0.0
2019-May-11 12:59N 51°31' E 000°59'0 0.0
2019-May-11 12:26N 51°31' E 000°59'0 0.0
2019-May-11 11:59N 51°31' E 000°59'0 0.1
2019-May-11 11:29N 51°31' E 000°59'0 0.0
2019-May-11 10:59N 51°31' E 000°59'0 0.1
2019-May-11 10:29N 51°31' E 000°59'0 0.0
2019-May-11 09:59N 51°31' E 000°59'0 0.0
2019-May-11 09:29N 51°31' E 000°59'0 0.5
2019-May-11 09:00N 51°31' E 000°60'5 9.4
2019-May-11 08:30N 51°33' E 001°06'4 8.7
2019-May-11 08:00N 51°36' E 001°12'4 8.7
2019-May-11 07:30N 51°39' E 001°16'4 8.3
2019-May-11 07:00N 51°42' E 001°21'4 8.7
2019-May-11 06:30N 51°45' E 001°26'4 8.2
2019-May-11 06:00N 51°48' E 001°31'4 8.4
2019-May-11 05:30N 51°50' E 001°37'4 8.7
2019-May-11 05:00N 51°53' E 001°42'5 9.3
2019-May-11 04:30N 51°57' E 001°46'5 9.9
2019-May-11 04:00N 51°60' E 001°52'5 9.9
2019-May-11 03:30N 52°02' E 001°59'510.4
2019-May-11 03:00N 52°03' E 002°07'610.7
2019-May-11 02:29N 52°04' E 002°16'810.9
2019-May-11 01:48N 52°06' E 002°28'511.1
2019-May-11 01:19N 52°09' E 002°36'1111.6
2019-May-11 00:20N 52°16' E 002°50'72 9.9
2019-May-10 17:03N 53°06' E 004°15'110.5
2019-May-10 17:00N 53°07' E 004°15'  

Dump ship's entire track history